Time;durP1;ratioP1;P1;durP2;ratioP2;P2;SDS_P1;SDS_P2;PMS_P1;PMS_P2;Temp;Humidity;BMP_temperature;BMP_pressure;BME280_temperature;BME280_humidity;BME280_pressure;Samples;Min_cycle;Max_cycle;Signal;HPM_P1;HPM_P2
2021/12/22 00:01:24;;;;;;;58.78;26.92;;;-0.80;99.90;;;;;;5007642;28;20112;-55
2021/12/22 00:03:49;;;;;;;51.95;26.33;;;-0.80;99.90;;;;;;5009436;28;20033;-54
2021/12/22 00:06:20;;;;;;;48.67;25.08;;;-0.90;99.90;;;;;;5009229;28;20395;-55
2021/12/22 00:08:45;;;;;;;54.13;24.92;;;-0.90;99.90;;;;;;5008315;28;20030;-52
2021/12/22 00:11:11;;;;;;;52.83;26.45;;;-0.90;99.90;;;;;;5008823;28;20032;-54
2021/12/22 00:13:37;;;;;;;53.55;25.58;;;-0.90;99.90;;;;;;5008714;28;20476;-55
2021/12/22 00:16:03;;;;;;;61.15;25.83;;;-1.00;99.90;;;;;;5008573;28;20104;-53
2021/12/22 00:18:28;;;;;;;50.05;25.65;;;-1.00;99.90;;;;;;5008843;28;20125;-54
2021/12/22 00:20:54;;;;;;;52.95;25.38;;;-1.00;99.90;;;;;;5008761;28;20064;-56
2021/12/22 00:23:19;;;;;;;54.47;25.23;;;-1.00;99.90;;;;;;5008971;28;20128;-54
2021/12/22 00:25:45;;;;;;;49.92;23.70;;;-1.00;99.90;;;;;;5008872;28;20034;-57
2021/12/22 00:28:11;;;;;;;39.30;21.00;;;-1.00;99.90;;;;;;5009783;28;20445;-56
2021/12/22 00:30:38;;;;;;;44.50;22.95;;;-1.00;99.90;;;;;;5008503;28;20124;-57
2021/12/22 00:33:06;;;;;;;42.50;21.50;;;-1.00;99.90;;;;;;5008902;28;20037;-57
2021/12/22 00:35:39;;;;;;;46.47;21.05;;;-1.00;99.90;;;;;;5007431;28;20048;-56
2021/12/22 00:38:06;;;;;;;46.47;21.67;;;-1.00;99.90;;;;;;5013625;28;20104;-57
2021/12/22 00:40:32;;;;;;;41.33;19.63;;;-1.00;99.90;;;;;;5012163;28;20036;-56
2021/12/22 00:42:58;;;;;;;48.67;21.63;;;-1.00;99.90;;;;;;5012568;28;20476;-56
2021/12/22 00:45:25;;;;;;;41.50;20.30;;;-1.00;99.90;;;;;;5011629;28;20512;-57
2021/12/22 00:47:51;;;;;;;44.42;20.67;;;-1.00;99.90;;;;;;5013155;28;20048;-57
2021/12/22 00:50:17;;;;;;;42.95;20.30;;;-1.00;99.90;;;;;;5012022;28;20030;-56
2021/12/22 00:52:42;;;;;;;46.40;21.17;;;-1.10;99.90;;;;;;5012257;28;20041;-57
2021/12/22 00:55:08;;;;;;;40.65;19.17;;;-1.10;99.90;;;;;;5011899;28;20030;-57
2021/12/22 00:57:37;;;;;;;40.70;20.02;;;-1.10;99.90;;;;;;5011222;28;20040;-57
2021/12/22 01:00:05;;;;;;;39.75;19.60;;;-1.10;99.90;;;;;;5011540;28;20029;-57
2021/12/22 01:02:31;;;;;;;38.95;19.48;;;-1.20;99.90;;;;;;5011747;28;20084;-55
2021/12/22 01:04:58;;;;;;;39.50;18.98;;;-1.20;99.90;;;;;;5011645;28;20439;-57
2021/12/22 01:07:23;;;;;;;39.42;18.58;;;-1.20;99.90;;;;;;5012004;28;20165;-56
2021/12/22 01:09:49;;;;;;;39.92;19.02;;;-1.20;99.90;;;;;;5011720;28;20121;-56
2021/12/22 01:12:15;;;;;;;38.00;17.85;;;-1.20;99.90;;;;;;5011911;28;20022;-54
2021/12/22 01:14:41;;;;;;;39.28;18.40;;;-1.20;99.90;;;;;;5011243;28;20587;-54
2021/12/22 01:17:10;;;;;;;37.17;18.45;;;-1.30;99.90;;;;;;5012627;28;20029;-57
2021/12/22 01:19:45;;;;;;;40.95;19.88;;;-1.30;99.90;;;;;;5011399;28;20034;-56
2021/12/22 01:25:00;;;;;;;42.28;19.17;;;-1.30;99.90;;;;;;5011849;28;20077;-55
2021/12/22 01:27:36;;;;;;;36.17;18.38;;;-1.30;99.90;;;;;;5012002;28;20049;-56
2021/12/22 01:30:06;;;;;;;36.75;17.85;;;-1.30;99.90;;;;;;5011534;28;20034;-55
2021/12/22 01:32:32;;;;;;;39.63;18.95;;;-1.40;99.90;;;;;;5010629;28;20502;-55
2021/12/22 01:34:58;;;;;;;39.55;19.45;;;-1.40;99.90;;;;;;5010927;28;20081;-56
2021/12/22 01:37:24;;;;;;;40.20;19.33;;;-1.50;99.90;;;;;;5011466;28;20030;-56
2021/12/22 01:39:50;;;;;;;38.78;19.13;;;-1.50;99.90;;;;;;5010714;28;20439;-55
2021/12/22 01:42:16;;;;;;;38.92;19.30;;;-1.40;99.90;;;;;;5011534;28;20377;-57
2021/12/22 01:45:14;;;;;;;45.60;21.08;;;-1.40;99.90;;;;;;5009649;28;20045;-56
2021/12/22 01:50:41;;;;;;;42.55;20.55;;;-1.50;99.90;;;;;;5010623;28;20045;-54
2021/12/22 01:53:21;;;;;;;39.22;18.55;;;-1.50;99.90;;;;;;5010524;28;20108;-56
2021/12/22 01:56:12;;;;;;;43.75;19.90;;;-1.60;99.90;;;;;;5005126;28;20088;-56
2021/12/22 01:58:43;;;;;;;40.40;20.08;;;-1.60;99.90;;;;;;5010600;28;20045;-57
2021/12/22 02:01:10;;;;;;;43.70;22.03;;;-1.60;99.90;;;;;;5011628;28;20506;-55
2021/12/22 02:03:39;;;;;;;46.72;23.98;;;-1.60;99.90;;;;;;5010717;28;20033;-57
2021/12/22 02:06:06;;;;;;;41.00;19.85;;;-1.60;99.90;;;;;;5012070;28;20072;-57
2021/12/22 02:08:33;;;;;;;42.78;21.30;;;-1.60;99.90;;;;;;5014033;28;20551;-55
2021/12/22 02:10:59;;;;;;;47.80;22.27;;;-1.60;99.90;;;;;;5011884;28;20114;-57
2021/12/22 02:13:30;;;;;;;47.88;21.55;;;-1.60;99.90;;;;;;5010225;28;20149;-57
2021/12/22 02:16:05;;;;;;;47.38;20.17;;;-1.60;99.90;;;;;;5014174;28;20053;-56
2021/12/22 02:18:31;;;;;;;47.60;21.42;;;-1.60;99.90;;;;;;5010208;28;20048;-57
2021/12/22 02:20:57;;;;;;;42.80;20.10;;;-1.70;99.90;;;;;;5010240;28;20038;-55
2021/12/22 02:23:23;;;;;;;50.53;21.98;;;-1.70;99.90;;;;;;5009414;28;20077;-54
2021/12/22 02:25:54;;;;;;;46.90;22.08;;;-1.70;99.90;;;;;;5011516;28;20388;-54
2021/12/22 02:28:25;;;;;;;45.95;20.95;;;-1.70;99.90;;;;;;5009234;28;20349;-57
2021/12/22 02:30:52;;;;;;;52.10;22.88;;;-1.70;99.90;;;;;;5010303;28;20096;-54
2021/12/22 02:33:24;;;;;;;55.15;22.63;;;-1.70;99.90;;;;;;5008510;28;20034;-54
2021/12/22 02:38:32;;;;;;;48.70;21.50;;;-1.70;99.90;;;;;;5011060;28;20487;-53
2021/12/22 02:40:58;;;;;;;47.92;21.88;;;-1.70;99.90;;;;;;5011218;28;20475;-54
2021/12/22 02:43:30;;;;;;;40.50;20.77;;;-1.70;99.90;;;;;;5009172;28;20061;-56
2021/12/22 02:45:55;;;;;;;;;;;-1.80;99.90;;;;;;5009434;28;20038;-54
2021/12/22 02:48:23;;;;;;;45.70;20.70;;;-1.80;99.90;;;;;;5010414;28;20149;-54
2021/12/22 02:50:49;;;;;;;44.75;21.67;;;-1.80;99.90;;;;;;5010069;28;20034;-53
2021/12/22 02:53:16;;;;;;;43.72;22.08;;;-1.80;99.90;;;;;;5010447;28;20017;-55
2021/12/22 02:56:16;;;;;;;47.95;22.55;;;-1.80;99.90;;;;;;5007683;28;20116;-54
2021/12/22 02:58:58;;;;;;;41.60;20.23;;;-1.90;99.90;;;;;;5002476;28;20470;-55
2021/12/22 03:04:06;;;;;;;43.67;21.25;;;-1.90;99.90;;;;;;5011685;28;20030;-56
2021/12/22 03:08:57;;;;;;;46.00;20.20;;;-2.00;99.90;;;;;;5009959;28;20030;-53
2021/12/22 03:11:23;;;;;;;56.13;22.13;;;-2.00;99.90;;;;;;5010159;28;20061;-54
2021/12/22 03:13:49;;;;;;;48.42;21.45;;;-2.10;99.90;;;;;;5009493;28;20025;-52
2021/12/22 03:16:18;;;;;;;45.30;19.92;;;-2.10;99.90;;;;;;5009399;28;20034;-53
2021/12/22 03:18:44;;;;;;;53.33;21.10;;;-2.10;99.90;;;;;;5009678;28;20061;-53
2021/12/22 03:21:20;;;;;;;44.58;19.67;;;-2.10;99.90;;;;;;5010442;28;20030;-53
2021/12/22 03:23:48;;;;;;;35.60;17.65;;;-2.10;99.90;;;;;;5009291;28;20042;-52
2021/12/22 03:26:16;;;;;;;43.75;19.50;;;-2.20;99.90;;;;;;5010604;28;20029;-52
2021/12/22 03:28:42;;;;;;;42.38;19.65;;;-2.20;99.90;;;;;;5007874;28;20030;-53
2021/12/22 03:31:08;;;;;;;40.47;18.80;;;-2.20;99.90;;;;;;5010457;28;20030;-52
2021/12/22 03:33:34;;;;;;;35.47;18.25;;;-2.20;99.90;;;;;;5008648;28;20041;-52
2021/12/22 03:35:59;;;;;;;37.78;18.65;;;-2.20;99.90;;;;;;5010336;28;20501;-54
2021/12/22 03:38:26;;;;;;;39.58;19.27;;;-2.30;99.90;;;;;;5008660;28;20068;-55
2021/12/22 03:40:51;;;;;;;41.55;18.08;;;-2.30;99.90;;;;;;5010312;28;20037;-55
2021/12/22 03:43:17;;;;;;;35.10;16.80;;;-2.30;99.90;;;;;;5008717;28;20488;-54
2021/12/22 03:45:43;;;;;;;35.58;17.48;;;-2.30;99.90;;;;;;5009502;28;20500;-53
2021/12/22 03:48:08;;;;;;;39.55;17.45;;;-2.30;99.90;;;;;;5009547;28;20163;-55
2021/12/22 03:50:34;;;;;;;39.50;18.65;;;-2.40;99.90;;;;;;5009637;28;20376;-53
2021/12/22 03:53:00;;;;;;;29.60;15.40;;;-2.40;99.90;;;;;;5007345;28;20445;-53
2021/12/22 03:55:25;;;;;;;35.60;16.20;;;-2.40;99.90;;;;;;5008522;28;20029;-55
2021/12/22 03:57:51;;;;;;;33.13;16.15;;;-2.40;99.90;;;;;;5009048;28;20034;-55
2021/12/22 04:00:18;;;;;;;33.72;15.90;;;-2.40;99.90;;;;;;5009819;28;20026;-54
2021/12/22 04:02:44;;;;;;;32.92;15.57;;;-2.40;99.90;;;;;;5009751;28;20025;-56
2021/12/22 04:05:10;;;;;;;32.63;15.65;;;-2.50;99.90;;;;;;5008990;28;20123;-55
2021/12/22 04:07:36;;;;;;;33.22;15.93;;;-2.50;99.90;;;;;;5009328;28;20044;-55
2021/12/22 04:10:09;;;;;;;33.17;16.02;;;-2.60;99.90;;;;;;5009997;28;20098;-54
2021/12/22 04:12:35;;;;;;;34.70;16.80;;;-2.60;99.90;;;;;;5013233;28;20033;-58
2021/12/22 04:15:01;;;;;;;34.45;16.08;;;-2.60;99.90;;;;;;5013223;28;20029;-55
2021/12/22 04:17:26;;;;;;;35.83;16.90;;;-2.70;99.90;;;;;;5013554;28;20037;-57
2021/12/22 04:19:52;;;;;;;33.47;15.55;;;-2.70;99.90;;;;;;5012818;28;20049;-57
2021/12/22 04:22:17;;;;;;;33.35;16.70;;;-2.60;99.90;;;;;;5013788;28;20700;-54
2021/12/22 04:24:43;;;;;;;35.65;16.02;;;-2.70;99.90;;;;;;5011132;28;20022;-53
2021/12/22 04:27:09;;;;;;;35.08;15.70;;;-2.70;99.90;;;;;;5011854;28;20040;-56
2021/12/22 04:29:34;;;;;;;38.70;16.60;;;-2.70;99.90;;;;;;5013320;28;20050;-54
2021/12/22 04:32:00;;;;;;;37.38;17.08;;;-2.70;99.90;;;;;;5012315;28;20061;-55
2021/12/22 04:34:26;;;;;;;31.10;15.80;;;-2.80;99.90;;;;;;5013204;28;20290;-52
2021/12/22 04:36:51;;;;;;;34.50;15.30;;;-2.80;99.90;;;;;;5014705;28;20117;-55
2021/12/22 04:39:17;;;;;;;33.75;16.20;;;-2.80;99.90;;;;;;5013670;28;20034;-55
2021/12/22 04:41:42;;;;;;;34.78;16.17;;;-2.80;99.90;;;;;;5013378;28;20053;-57
2021/12/22 04:44:08;;;;;;;34.10;16.23;;;-2.80;99.90;;;;;;5014053;28;20042;-55
2021/12/22 04:46:34;;;;;;;39.17;16.23;;;-2.80;99.90;;;;;;5012080;28;20045;-57
2021/12/22 04:49:00;;;;;;;36.83;16.98;;;-2.90;99.90;;;;;;5013548;28;20026;-52
2021/12/22 04:51:29;;;;;;;36.95;16.17;;;-2.90;99.90;;;;;;5011460;28;20033;-55
2021/12/22 04:54:15;;;;;;;35.22;16.50;;;-2.90;99.90;;;;;;5011071;28;20069;-55
2021/12/22 04:56:41;;;;;;;33.67;15.85;;;-2.90;99.90;;;;;;5004275;28;20038;-58
2021/12/22 04:59:07;;;;;;;38.78;16.35;;;-2.80;99.90;;;;;;5013773;28;20392;-57
2021/12/22 05:01:33;;;;;;;36.75;17.10;;;-2.90;99.90;;;;;;5013299;28;20041;-52
2021/12/22 05:03:58;;;;;;;40.67;18.02;;;-2.90;99.90;;;;;;5011781;28;20034;-56
2021/12/22 05:06:24;;;;;;;36.28;17.17;;;-2.90;99.90;;;;;;5011599;28;20030;-58
2021/12/22 05:08:51;;;;;;;38.55;16.33;;;-2.90;99.90;;;;;;5012114;28;20096;-53
2021/12/22 05:11:17;;;;;;;37.60;17.63;;;-3.00;99.90;;;;;;5012337;28;20026;-56
2021/12/22 05:13:43;;;;;;;36.00;16.75;;;-2.90;99.90;;;;;;5009615;28;20088;-55
2021/12/22 05:16:16;;;;;;;40.67;16.90;;;-3.00;99.90;;;;;;5005104;28;20296;-54
2021/12/22 05:18:55;;;;;;;37.53;16.42;;;-3.00;99.90;;;;;;4980467;28;20033;-57
2021/12/22 05:21:22;;;;;;;37.40;16.77;;;-2.90;99.90;;;;;;5012751;28;20100;-55
2021/12/22 05:23:52;;;;;;;36.95;16.33;;;-3.00;99.90;;;;;;5012407;28;20033;-57
2021/12/22 05:26:18;;;;;;;39.08;17.05;;;-3.00;99.90;;;;;;5012463;28;20030;-58
2021/12/22 05:28:44;;;;;;;38.95;17.73;;;-3.00;99.90;;;;;;5010287;28;20056;-57
2021/12/22 05:31:10;;;;;;;35.15;15.20;;;-3.00;99.90;;;;;;5007206;28;20073;-56
2021/12/22 05:33:36;;;;;;;37.40;16.13;;;-3.00;99.90;;;;;;5011684;28;20518;-57
2021/12/22 05:36:01;;;;;;;37.10;17.20;;;-3.00;99.90;;;;;;5012273;28;20510;-58
2021/12/22 05:38:27;;;;;;;40.65;17.00;;;-3.00;99.90;;;;;;5011097;28;20065;-58
2021/12/22 05:40:53;;;;;;;39.42;18.42;;;-3.10;99.90;;;;;;5009629;28;20096;-56
2021/12/22 05:43:18;;;;;;;42.85;17.98;;;-3.10;99.90;;;;;;5009454;28;20128;-58
2021/12/22 05:45:44;;;;;;;48.17;17.50;;;-3.10;99.90;;;;;;5013061;28;20036;-57
2021/12/22 05:48:10;;;;;;;39.85;17.00;;;-3.20;99.90;;;;;;5010239;28;20443;-55
2021/12/22 05:50:35;;;;;;;43.83;17.77;;;-3.30;99.90;;;;;;5011739;28;20025;-58
2021/12/22 05:53:01;;;;;;;45.63;17.30;;;-3.30;99.90;;;;;;5010884;28;20049;-58
2021/12/22 05:55:27;;;;;;;36.67;16.45;;;-3.30;99.90;;;;;;5010608;28;20037;-58
2021/12/22 05:57:53;;;;;;;42.97;17.02;;;-3.30;99.90;;;;;;5011053;28;20041;-59
2021/12/22 06:00:19;;;;;;;43.95;18.10;;;-3.30;99.90;;;;;;5011345;28;20026;-59
2021/12/22 06:02:45;;;;;;;41.88;17.55;;;-3.30;99.90;;;;;;5012567;28;20108;-59
2021/12/22 06:05:11;;;;;;;38.70;17.25;;;-3.40;99.90;;;;;;5010610;28;20069;-61
2021/12/22 06:07:37;;;;;;;42.55;18.23;;;-3.40;99.90;;;;;;4990977;28;20054;-58
2021/12/22 06:10:04;;;;;;;40.78;17.15;;;-3.40;99.90;;;;;;5007774;28;20651;-56
2021/12/22 06:12:30;;;;;;;47.88;18.35;;;-3.40;99.90;;;;;;5010635;28;20136;-53
2021/12/22 06:14:56;;;;;;;48.83;19.17;;;-3.30;99.90;;;;;;5011204;28;20113;-54
2021/12/22 06:17:21;;;;;;;43.33;17.88;;;-3.30;99.90;;;;;;5010089;28;20034;-56
2021/12/22 06:19:47;;;;;;;40.75;18.42;;;-3.30;99.90;;;;;;5009333;28;20141;-57
2021/12/22 06:22:13;;;;;;;38.25;17.27;;;-3.30;99.90;;;;;;5006540;28;20164;-58
2021/12/22 06:24:38;;;;;;;44.20;18.52;;;-3.30;99.90;;;;;;4997029;28;20030;-59
2021/12/22 06:27:04;;;;;;;45.85;18.38;;;-3.30;99.90;;;;;;4996323;28;20049;-56
2021/12/22 06:29:30;;;;;;;47.03;18.05;;;-3.30;99.90;;;;;;5003105;28;20110;-55
2021/12/22 06:31:55;;;;;;;39.20;17.35;;;-3.30;99.90;;;;;;5009482;28;20101;-57
2021/12/22 06:34:21;;;;;;;44.55;17.73;;;-3.30;99.90;;;;;;5011136;28;20030;-57
2021/12/22 06:36:47;;;;;;;40.90;16.90;;;-3.30;99.90;;;;;;5012096;28;20369;-57
2021/12/22 06:39:14;;;;;;;42.42;17.33;;;-3.20;99.90;;;;;;5011794;28;20119;-57
2021/12/22 06:41:40;;;;;;;42.80;17.70;;;-3.30;99.90;;;;;;5007000;28;20083;-57
2021/12/22 06:44:06;;;;;;;43.20;17.63;;;-3.30;99.90;;;;;;5009263;28;20046;-56
2021/12/22 06:46:32;;;;;;;41.63;18.42;;;-3.30;99.90;;;;;;5010889;28;20038;-57
2021/12/22 06:48:57;;;;;;;43.63;17.58;;;-3.30;99.90;;;;;;5010950;28;20097;-59
2021/12/22 06:51:23;;;;;;;44.63;17.52;;;-3.40;99.90;;;;;;5010802;28;20034;-57
2021/12/22 06:53:49;;;;;;;46.33;18.58;;;-3.40;99.90;;;;;;5008162;28;20410;-59
2021/12/22 06:56:14;;;;;;;42.35;17.95;;;-3.40;99.90;;;;;;5009632;28;20131;-58
2021/12/22 06:58:40;;;;;;;52.28;18.33;;;-3.40;99.90;;;;;;5011359;28;20459;-59
2021/12/22 07:01:06;;;;;;;41.25;17.20;;;-3.50;99.90;;;;;;5011165;28;20318;-58
2021/12/22 07:03:32;;;;;;;46.90;17.05;;;-3.50;99.90;;;;;;5007688;28;20037;-58
2021/12/22 07:05:57;;;;;;;50.00;18.95;;;-3.40;99.90;;;;;;5009700;28;20042;-56
2021/12/22 07:08:23;;;;;;;44.45;17.70;;;-3.50;99.90;;;;;;5011403;28;20113;-58
2021/12/22 07:10:49;;;;;;;51.47;18.92;;;-3.40;99.90;;;;;;5010701;28;20034;-55
2021/12/22 07:13:14;;;;;;;46.25;16.85;;;-3.50;99.90;;;;;;5009481;28;20510;-57
2021/12/22 07:15:43;;;;;;;50.13;19.35;;;-3.50;99.90;;;;;;5010069;28;20034;-56
2021/12/22 07:18:12;;;;;;;41.70;17.48;;;-3.50;99.90;;;;;;5012304;28;20026;-55
2021/12/22 07:20:38;;;;;;;46.17;17.60;;;-3.50;99.90;;;;;;5010809;28;20045;-55
2021/12/22 07:23:03;;;;;;;47.67;18.48;;;-3.60;99.90;;;;;;5006102;28;20180;-55
2021/12/22 07:25:29;;;;;;;47.42;17.20;;;-3.70;99.90;;;;;;5018968;28;20454;-57
2021/12/22 07:27:55;;;;;;;54.78;18.70;;;-3.80;99.90;;;;;;5012880;28;20446;-57
2021/12/22 07:30:21;;;;;;;45.75;18.00;;;-3.80;99.90;;;;;;5011528;28;20084;-58
2021/12/22 07:32:46;;;;;;;51.53;18.27;;;-3.80;99.90;;;;;;5011200;28;20040;-58
2021/12/22 07:35:19;;;;;;;45.22;17.70;;;-3.90;99.90;;;;;;5011486;28;20348;-58
2021/12/22 07:37:51;;;;;;;48.90;17.17;;;-3.90;99.90;;;;;;5011331;28;20516;-59
2021/12/22 07:40:19;;;;;;;53.63;18.67;;;-3.90;99.90;;;;;;5011852;28;20033;-57
2021/12/22 07:42:45;;;;;;;51.75;19.15;;;-3.80;99.90;;;;;;5011500;28;20030;-58
2021/12/22 07:45:11;;;;;;;50.05;19.05;;;-3.80;99.90;;;;;;5012065;28;20080;-58
2021/12/22 07:47:37;;;;;;;48.22;19.00;;;-3.90;99.90;;;;;;5015177;28;20030;-58
2021/12/22 07:50:04;;;;;;;47.92;16.20;;;-3.90;99.90;;;;;;5020110;28;20033;-58
2021/12/22 07:52:30;;;;;;;50.90;19.73;;;-3.80;99.90;;;;;;5009086;28;20380;-59
2021/12/22 07:54:57;;;;;;;57.10;20.27;;;-3.90;99.90;;;;;;5012760;28;20026;-60
2021/12/22 07:57:22;;;;;;;41.40;15.43;;;-4.00;99.90;;;;;;5010757;28;20034;-57
2021/12/22 07:59:48;;;;;;;46.67;17.13;;;-4.00;99.90;;;;;;5011094;28;20408;-54
2021/12/22 08:02:14;;;;;;;58.50;19.45;;;-3.90;99.90;;;;;;5008501;28;20184;-59
2021/12/22 08:04:40;;;;;;;54.72;18.35;;;-3.90;99.90;;;;;;5010680;28;20033;-58
2021/12/22 08:07:05;;;;;;;53.63;19.42;;;-3.90;99.90;;;;;;5011081;28;20496;-59
2021/12/22 08:09:31;;;;;;;56.03;19.85;;;-3.80;99.90;;;;;;5010748;28;20403;-56
2021/12/22 08:12:04;;;;;;;53.92;18.88;;;-3.80;99.90;;;;;;5010736;28;20526;-55
2021/12/22 08:14:40;;;;;;;55.13;21.13;;;-3.80;99.90;;;;;;5010730;28;20488;-58
2021/12/22 08:17:07;;;;;;;58.55;19.60;;;-3.70;99.90;;;;;;5011183;28;20033;-60
2021/12/22 08:19:33;;;;;;;52.53;17.52;;;-3.60;99.90;;;;;;5010421;28;20033;-55
2021/12/22 08:21:59;;;;;;;52.88;18.80;;;-3.60;99.90;;;;;;5012171;28;20033;-60
2021/12/22 08:24:25;;;;;;;58.20;19.77;;;-3.60;99.90;;;;;;5011788;28;20467;-59
2021/12/22 08:26:52;;;;;;;59.30;20.13;;;-3.70;99.90;;;;;;5010003;28;20030;-56
2021/12/22 08:29:18;;;;;;;58.35;19.55;;;-3.80;99.90;;;;;;5013063;28;20085;-60
2021/12/22 08:31:44;;;;;;;63.90;19.77;;;-3.70;99.90;;;;;;5011608;28;20030;-60
2021/12/22 08:34:13;;;;;;;54.90;19.67;;;-3.70;99.90;;;;;;5015589;28;20022;-59
2021/12/22 08:39:23;;;;;;;57.53;19.98;;;-3.60;99.90;;;;;;5008690;28;20575;-58
2021/12/22 08:41:49;;;;;;;63.35;22.02;;;-3.50;99.90;;;;;;5010160;28;20056;-58
2021/12/22 08:44:18;;;;;;;54.45;19.33;;;-3.50;99.90;;;;;;5008751;28;20062;-58
2021/12/22 08:46:49;;;;;;;57.97;20.30;;;-3.40;99.90;;;;;;5001538;28;20045;-56
2021/12/22 08:49:16;;;;;;;60.20;20.88;;;-3.30;99.90;;;;;;5009946;28;20113;-59
2021/12/22 08:51:42;;;;;;;57.17;20.58;;;-3.30;99.90;;;;;;5010695;28;20507;-61
2021/12/22 08:54:08;;;;;;;57.35;20.65;;;-3.20;99.90;;;;;;5010910;28;20026;-58
2021/12/22 08:56:34;;;;;;;57.90;21.17;;;-3.20;99.90;;;;;;5004262;28;20132;-58
2021/12/22 08:59:02;;;;;;;70.07;21.55;;;-3.10;99.90;;;;;;5012411;28;20116;-57
2021/12/22 09:01:28;;;;;;;61.80;19.90;;;-3.10;99.90;;;;;;5004620;28;20018;-59
2021/12/22 09:03:53;;;;;;;60.97;21.20;;;-3.10;99.90;;;;;;5011243;28;20053;-57
2021/12/22 09:06:19;;;;;;;61.35;21.95;;;-3.10;99.90;;;;;;5011784;28;20049;-60
2021/12/22 09:08:45;;;;;;;58.20;21.42;;;-3.10;99.90;;;;;;5011617;28;20034;-60
2021/12/22 09:11:12;;;;;;;60.47;22.25;;;-3.00;99.90;;;;;;5011625;28;20150;-59
2021/12/22 09:13:39;;;;;;;60.85;21.17;;;-3.00;99.90;;;;;;5007915;28;20701;-58
2021/12/22 09:16:07;;;;;;;61.30;21.23;;;-2.90;99.90;;;;;;5011699;28;20129;-59
2021/12/22 09:18:33;;;;;;;64.15;21.35;;;-2.80;99.90;;;;;;5012023;28;20038;-57
2021/12/22 09:20:59;;;;;;;69.82;23.77;;;-2.80;99.90;;;;;;5011761;28;20621;-60
2021/12/22 09:23:24;;;;;;;68.60;23.55;;;-2.70;99.90;;;;;;5010807;28;20057;-57
2021/12/22 09:25:50;;;;;;;70.55;23.45;;;-2.60;99.90;;;;;;5012316;28;20034;-57
2021/12/22 09:28:16;;;;;;;72.18;24.40;;;-2.60;99.90;;;;;;5011440;28;20068;-57
2021/12/22 09:30:44;;;;;;;67.22;23.98;;;-2.50;99.90;;;;;;5011698;28;20072;-56
2021/12/22 09:33:14;;;;;;;63.60;23.10;;;-2.40;99.90;;;;;;5011312;28;20096;-60
2021/12/22 09:35:41;;;;;;;62.83;22.55;;;-2.40;99.90;;;;;;5011806;28;20064;-58
2021/12/22 09:38:07;;;;;;;67.95;23.13;;;-2.30;99.90;;;;;;5012860;28;20030;-58
2021/12/22 09:40:33;;;;;;;72.68;24.67;;;-2.30;99.90;;;;;;5010484;28;20030;-57
2021/12/22 09:42:59;;;;;;;82.93;25.98;;;-2.30;99.90;;;;;;5011311;28;20030;-57
2021/12/22 09:45:26;;;;;;;75.03;25.00;;;-2.20;99.90;;;;;;5001466;28;20041;-58
2021/12/22 09:50:46;;;;;;;78.20;26.45;;;-2.00;99.90;;;;;;4994598;28;20030;-59
2021/12/22 09:53:14;;;;;;;87.68;27.15;;;-1.90;99.90;;;;;;5001696;28;20041;-60
2021/12/22 09:55:40;;;;;;;75.40;26.80;;;-1.90;99.90;;;;;;5006496;28;20438;-59
2021/12/22 09:58:06;;;;;;;76.65;26.05;;;-2.00;99.90;;;;;;5012320;28;20030;-59
2021/12/22 10:00:35;;;;;;;79.05;26.67;;;-1.90;99.90;;;;;;4992773;28;20053;-58
2021/12/22 10:03:01;;;;;;;77.22;26.92;;;-1.90;99.90;;;;;;5010349;28;20034;-58
2021/12/22 10:05:26;;;;;;;81.38;27.92;;;-1.90;99.90;;;;;;5011559;28;20152;-58
2021/12/22 10:08:06;;;;;;;75.38;27.30;;;-1.80;99.90;;;;;;5010448;28;20022;-58
2021/12/22 10:10:32;;;;;;;76.18;24.90;;;-1.60;99.90;;;;;;5006119;28;20464;-58
2021/12/22 10:13:13;;;;;;;75.45;27.33;;;-1.60;99.90;;;;;;5010640;28;20058;-58
2021/12/22 10:15:40;;;;;;;69.82;25.15;;;-1.50;99.90;;;;;;5009519;28;20077;-59
2021/12/22 10:18:14;;;;;;;70.25;26.55;;;-1.40;99.90;;;;;;5011175;28;20026;-60
2021/12/22 10:20:41;;;;;;;69.60;25.65;;;-1.40;99.90;;;;;;5012090;28;20038;-56
2021/12/22 10:23:27;;;;;;;71.38;26.02;;;-1.30;99.90;;;;;;5012567;28;20030;-58
2021/12/22 10:26:07;;;;;;;62.58;23.20;;;-1.20;99.90;;;;;;5012454;28;20069;-59
2021/12/22 10:28:52;;;;;;;70.72;25.67;;;-1.10;99.90;;;;;;5011192;28;20022;-55
2021/12/22 10:31:19;;;;;;;71.97;24.55;;;-1.10;99.90;;;;;;5011067;28;20555;-58
2021/12/22 10:33:46;;;;;;;73.25;24.70;;;-1.10;99.90;;;;;;5011021;28;20364;-58
2021/12/22 10:36:18;;;;;;;73.03;25.48;;;-1.20;99.90;;;;;;5011216;28;20029;-57
2021/12/22 10:38:59;;;;;;;68.40;24.52;;;-1.10;99.90;;;;;;5011338;28;20124;-59
2021/12/22 10:41:29;;;;;;;60.13;23.30;;;-1.10;99.90;;;;;;4992241;28;20132;-59
2021/12/22 10:43:55;;;;;;;59.13;22.42;;;-1.10;99.90;;;;;;5010733;28;20117;-56
2021/12/22 10:46:27;;;;;;;60.85;24.00;;;-1.00;99.90;;;;;;5011827;28;20026;-59
2021/12/22 10:49:17;;;;;;;;;;;-1.00;99.90;;;;;;5010247;28;20112;-58
2021/12/22 10:52:00;;;;;;;59.35;21.98;;;-0.90;99.90;;;;;;5003507;28;19910;-62
2021/12/22 10:54:37;;;;;;;54.83;22.45;;;-0.70;99.90;;;;;;5011566;28;20422;-60
2021/12/22 10:57:09;;;;;;;60.53;22.83;;;-0.70;99.90;;;;;;5011481;28;20033;-57
2021/12/22 10:59:45;;;;;;;62.60;22.15;;;-0.70;99.90;;;;;;5010867;28;20062;-58
2021/12/22 11:02:18;;;;;;;55.75;21.92;;;-0.70;99.90;;;;;;5009388;28;20036;-58
2021/12/22 11:04:45;;;;;;;59.97;22.25;;;-0.70;99.90;;;;;;5011272;28;20026;-58
2021/12/22 11:07:21;;;;;;;67.40;25.40;;;-0.70;99.90;;;;;;5010608;28;20387;-58
2021/12/22 11:09:46;;;;;;;58.38;23.60;;;-0.80;99.90;;;;;;5017199;28;20112;-57
2021/12/22 11:12:14;;;;;;;63.28;24.75;;;-0.90;99.90;;;;;;5030496;28;20535;-57
2021/12/22 11:14:42;;;;;;;61.47;24.30;;;-1.00;99.90;;;;;;5014022;28;20076;-58
2021/12/22 11:17:13;;;;;;;59.58;23.60;;;-0.80;99.90;;;;;;5011325;28;20045;-60
2021/12/22 11:19:58;;;;;;;57.10;22.92;;;-0.80;99.90;;;;;;5010550;28;20534;-59
2021/12/22 11:22:46;;;;;;;66.22;24.48;;;-0.90;99.90;;;;;;5008935;28;20034;-56
2021/12/22 11:25:12;;;;;;;68.60;24.10;;;-0.90;99.90;;;;;;5009994;28;20048;-58
2021/12/22 11:27:38;;;;;;;61.30;24.83;;;-0.80;99.90;;;;;;5009018;28;20045;-58
2021/12/22 11:30:05;;;;;;;64.25;24.33;;;-0.80;99.90;;;;;;5009107;28;20037;-59
2021/12/22 11:32:32;;;;;;;59.00;22.90;;;-0.70;99.90;;;;;;5009964;28;20095;-58
2021/12/22 11:35:09;;;;;;;59.85;24.13;;;-0.70;99.90;;;;;;5011248;28;20026;-58
2021/12/22 11:37:35;;;;;;;59.95;23.63;;;-0.80;99.90;;;;;;5010418;28;20080;-57
2021/12/22 11:40:03;;;;;;;59.13;23.65;;;-0.90;99.90;;;;;;5006940;28;20030;-60
2021/12/22 11:42:37;;;;;;;58.70;24.40;;;-0.90;99.90;;;;;;5010409;28;20036;-60
2021/12/22 11:45:19;;;;;;;63.70;24.33;;;-0.90;99.90;;;;;;5012625;28;20499;-59
2021/12/22 11:47:52;;;;;;;68.30;25.77;;;-0.80;99.90;;;;;;5018180;28;20475;-58
2021/12/22 11:50:25;;;;;;;66.93;23.42;;;-0.80;99.90;;;;;;4995639;28;20827;-58
2021/12/22 11:53:06;;;;;;;60.72;23.75;;;-0.90;99.90;;;;;;4990482;28;20030;-58
2021/12/22 11:55:48;;;;;;;60.03;23.88;;;-0.90;99.90;;;;;;4991460;28;20023;-57
2021/12/22 11:58:17;;;;;;;70.40;24.52;;;-0.90;99.90;;;;;;4995680;28;20046;-57
2021/12/22 12:00:46;;;;;;;66.38;24.92;;;-0.80;99.90;;;;;;4990173;28;20121;-56
2021/12/22 12:03:22;;;;;;;59.60;24.35;;;-0.80;99.90;;;;;;4990212;28;20026;-56
2021/12/22 12:06:17;;;;;;;59.20;22.92;;;-0.80;99.90;;;;;;4990433;28;20026;-58
2021/12/22 12:08:58;;;;;;;66.00;25.17;;;-0.70;99.90;;;;;;4990027;28;20065;-57
2021/12/22 12:11:33;;;;;;;55.60;23.95;;;-0.70;99.90;;;;;;4990333;28;20061;-58
2021/12/22 12:14:08;;;;;;;60.40;23.30;;;-0.80;99.90;;;;;;5003270;28;20101;-59
2021/12/22 12:22:36;;;;;;;49.85;21.98;;;-0.60;99.90;;;;;;5009782;28;20498;-58
2021/12/22 12:25:14;;;;;;;56.00;22.85;;;-0.50;99.90;;;;;;5010129;28;20157;-58
2021/12/22 12:27:46;;;;;;;60.20;23.27;;;-0.40;99.90;;;;;;5009540;28;20087;-57
2021/12/22 12:30:22;;;;;;;;;;;-0.30;99.90;;;;;;5010149;28;20420;-58
2021/12/22 12:32:49;;;;;;;54.80;22.02;;;-0.40;99.90;;;;;;5004069;28;19921;-58
2021/12/22 12:35:17;;;;;;;55.83;22.90;;;-0.40;99.90;;;;;;5013536;28;20026;-57
2021/12/22 12:38:02;;;;;;;53.13;21.38;;;-0.40;99.90;;;;;;5012174;28;20069;-57
2021/12/22 12:40:55;;;;;;;55.35;22.23;;;-0.30;99.90;;;;;;5014404;28;20087;-58
2021/12/22 12:43:40;;;;;;;53.83;21.63;;;-0.30;99.90;;;;;;5009531;28;20034;-60
2021/12/22 12:46:42;;;;;;;50.65;21.23;;;-0.30;99.90;;;;;;5011618;28;20132;-58
2021/12/22 12:49:12;;;;;;;63.75;23.45;;;-0.30;99.90;;;;;;5009351;28;20475;-58
2021/12/22 12:51:49;;;;;;;55.42;22.08;;;-0.20;99.90;;;;;;5011607;28;20569;-58
2021/12/22 12:54:18;;;;;;;60.38;24.10;;;-0.20;99.90;;;;;;5009577;28;20026;-59
2021/12/22 12:56:51;;;;;;;59.13;23.05;;;-0.20;99.90;;;;;;5013439;28;20088;-59
2021/12/22 12:59:41;;;;;;;71.47;24.38;;;-0.20;99.90;;;;;;4998090;28;20034;-58
2021/12/22 13:02:18;;;;;;;60.85;23.95;;;-0.30;99.90;;;;;;5003803;28;20052;-58